Time;durP1;ratioP1;P1;durP2;ratioP2;P2;SDS_P1;SDS_P2;PMS_P1;PMS_P2;Temp;Humidity;BMP_temperature;BMP_pressure;BME280_temperature;BME280_humidity;BME280_pressure;Samples;Min_cycle;Max_cycle;Signal;HPM_P1;HPM_P2
2022/01/29 00:01:44;;;;;;;6.43;3.87;;;;;;;4.95;65.21;99954.16;5093037;28;20195;-55
2022/01/29 00:04:12;;;;;;;5.37;4.13;;;;;;;4.89;65.66;99952.44;5093140;28;20237;-56
2022/01/29 00:06:39;;;;;;;4.50;4.10;;;;;;;4.78;65.46;99932.69;5092974;28;20207;-57
2022/01/29 00:09:08;;;;;;;4.47;4.07;;;;;;;4.75;65.80;99952.41;5092951;28;20196;-57
2022/01/29 00:11:36;;;;;;;6.27;4.03;;;;;;;4.75;65.85;99954.13;5093218;28;20203;-56
2022/01/29 00:14:03;;;;;;;4.00;3.50;;;;;;;4.67;65.92;99948.13;5093038;28;20195;-56
2022/01/29 00:16:30;;;;;;;4.27;3.93;;;;;;;4.62;66.34;99942.13;5092779;28;20270;-56
2022/01/29 00:18:57;;;;;;;6.30;4.20;;;;;;;4.59;66.40;99942.09;5092818;28;20202;-57
2022/01/29 00:21:25;;;;;;;4.13;3.73;;;;;;;4.53;66.45;99942.06;5092719;28;20210;-56
2022/01/29 00:23:52;;;;;;;5.17;3.93;;;;;;;4.48;66.56;99936.09;5092542;28;20229;-57
2022/01/29 00:26:22;;;;;;;10.17;4.23;;;;;;;4.61;66.12;99945.53;5092758;28;20257;-56
2022/01/29 00:28:51;;;;;;;5.07;4.20;;;;;;;4.59;65.97;99945.53;5092608;28;20203;-57
2022/01/29 00:31:18;;;;;;;6.00;4.20;;;;;;;4.53;66.64;99947.22;5092846;28;20195;-56
2022/01/29 00:33:45;;;;;;;4.23;3.67;;;;;;;4.44;66.76;99949.78;5092273;28;20191;-57
2022/01/29 00:36:12;;;;;;;6.97;4.30;;;;;;;4.38;66.82;99956.63;5092540;28;20570;-57
2022/01/29 00:38:40;;;;;;;5.57;4.00;;;;;;;4.39;66.51;99960.06;5092537;28;20229;-55
2022/01/29 00:41:07;;;;;;;5.57;4.30;;;;;;;4.42;67.02;99965.19;5092340;28;20282;-55
2022/01/29 00:43:35;;;;;;;6.50;4.23;;;;;;;4.57;65.95;99964.38;5092265;28;20340;-55
2022/01/29 00:46:02;;;;;;;7.83;4.60;;;;;;;4.55;65.83;99958.38;5092213;28;20195;-55
2022/01/29 00:48:28;;;;;;;5.80;4.70;;;;;;;4.50;66.54;99966.09;5092353;28;20592;-55
2022/01/29 00:50:57;;;;;;;5.00;4.50;;;;;;;4.35;67.03;99964.31;5092218;28;20201;-55
2022/01/29 00:53:23;;;;;;;5.10;4.60;;;;;;;4.45;66.55;99970.34;5092089;28;20201;-55
2022/01/29 00:55:52;;;;;;;8.37;5.10;;;;;;;4.21;67.34;99953.13;5091908;28;20234;-56
2022/01/29 00:58:19;;;;;;;5.83;4.50;;;;;;;4.20;68.04;99968.53;5091785;28;20201;-56
2022/01/29 01:00:46;;;;;;;7.13;4.60;;;;;;;4.09;68.27;99950.50;5092202;28;20685;-57
2022/01/29 01:03:13;;;;;;;5.47;4.73;;;;;;;4.25;67.88;99966.84;5092002;28;20765;-57
2022/01/29 01:05:40;;;;;;;5.43;4.80;;;;;;;4.30;67.58;99968.56;5091827;28;20196;-56
2022/01/29 01:08:08;;;;;;;5.67;4.67;;;;;;;4.08;68.37;99964.19;5092005;28;20680;-57
2022/01/29 01:10:35;;;;;;;8.77;4.53;;;;;;;4.16;68.25;99965.09;5091798;28;20200;-55
2022/01/29 01:13:03;;;;;;;6.63;4.63;;;;;;;4.18;68.60;99960.81;5091697;28;20197;-57
2022/01/29 01:15:30;;;;;;;7.47;5.43;;;;;;;4.07;68.63;99949.63;5091524;28;20210;-57
2022/01/29 01:17:57;;;;;;;5.60;4.70;;;;;;;4.07;68.41;99923.94;5091611;28;20210;-56
2022/01/29 01:20:24;;;;;;;6.30;5.27;;;;;;;4.20;68.34;99928.28;5091656;28;20592;-57
2022/01/29 01:22:51;;;;;;;5.17;4.50;;;;;;;4.11;68.24;99905.13;5091357;28;20198;-57
2022/01/29 01:25:18;;;;;;;12.43;5.17;;;;;;;4.22;68.39;99925.72;5091428;28;20737;-57
2022/01/29 01:27:47;;;;;;;5.23;4.73;;;;;;;4.34;67.83;99926.63;5091334;28;20198;-57
2022/01/29 01:30:15;;;;;;;5.60;5.03;;;;;;;4.24;67.52;99922.31;5091397;28;20205;-56
2022/01/29 01:32:42;;;;;;;4.67;4.27;;;;;;;4.31;67.42;99916.31;5091294;28;20195;-57
2022/01/29 01:35:16;;;;;;;5.03;4.47;;;;;;;4.37;67.47;99921.50;5091378;28;20203;-57
2022/01/29 01:37:48;;;;;;;6.53;4.53;;;;;;;4.32;67.25;99912.91;5091191;28;20205;-57
2022/01/29 01:40:16;;;;;;;5.50;4.70;;;;;;;4.24;67.85;99914.59;5091215;28;20201;-56
2022/01/29 01:42:43;;;;;;;5.20;4.70;;;;;;;4.19;68.03;99916.28;5091309;28;20198;-55
2022/01/29 01:45:10;;;;;;;5.87;5.07;;;;;;;4.19;67.73;99918.84;5090770;28;20732;-55
2022/01/29 01:47:39;;;;;;;7.37;4.80;;;;;;;4.16;68.12;99911.16;5091655;28;20231;-55
2022/01/29 01:50:08;;;;;;;7.43;4.90;;;;;;;4.18;67.76;99916.28;5091203;28;20278;-55
2022/01/29 01:52:35;;;;;;;5.63;5.10;;;;;;;4.27;67.45;99919.75;5091021;28;20667;-57
2022/01/29 01:55:02;;;;;;;8.00;5.30;;;;;;;4.25;67.58;99925.75;5090858;28;20231;-57
2022/01/29 01:57:29;;;;;;;6.43;5.80;;;;;;;4.20;67.37;99917.16;5091008;28;20213;-55
2022/01/29 01:59:56;;;;;;;6.23;5.07;;;;;;;4.23;67.40;99927.44;5090807;28;20202;-55
2022/01/29 02:02:23;;;;;;;6.00;5.10;;;;;;;4.23;67.46;99923.16;5090938;28;20199;-56
2022/01/29 02:04:51;;;;;;;5.73;4.97;;;;;;;4.17;67.48;99923.16;5090619;28;20227;-57
2022/01/29 02:07:21;;;;;;;7.20;5.37;;;;;;;4.13;67.84;99926.56;5091103;28;20205;-56
2022/01/29 02:09:48;;;;;;;8.70;5.17;;;;;;;4.09;68.18;99919.69;5090677;28;20198;-57
2022/01/29 02:12:15;;;;;;;6.03;5.17;;;;;;;4.16;67.16;99924.00;5090892;28;20197;-57
2022/01/29 02:14:44;;;;;;;5.30;4.80;;;;;;;4.13;67.15;99910.28;5090862;28;20191;-57
2022/01/29 02:17:11;;;;;;;6.67;4.93;;;;;;;4.10;67.43;99916.25;5090781;28;20680;-57
2022/01/29 02:19:38;;;;;;;5.30;4.80;;;;;;;4.05;67.30;99928.25;5090490;28;20208;-57
2022/01/29 02:22:07;;;;;;;5.80;5.13;;;;;;;4.00;67.19;99917.94;5090512;28;20198;-57
2022/01/29 02:24:34;;;;;;;5.93;4.87;;;;;;;3.75;67.98;99910.09;5090568;28;20219;-57
2022/01/29 02:27:01;;;;;;;6.20;4.57;;;;;;;3.68;69.03;99911.81;5090472;28;20204;-57
2022/01/29 02:29:32;;;;;;;5.63;4.97;;;;;;;3.60;69.51;99913.47;5090501;28;20201;-57
2022/01/29 02:31:59;;;;;;;5.10;4.53;;;;;;;3.68;68.44;99916.06;5090337;28;20285;-57
2022/01/29 02:34:26;;;;;;;5.00;3.90;;;;;;;3.69;67.65;99918.66;5090720;28;20724;-55
2022/01/29 02:36:55;;;;;;;6.57;5.27;;;;;;;3.58;67.08;99892.94;5090209;28;20284;-56
2022/01/29 02:39:24;;;;;;;4.70;4.30;;;;;;;3.84;65.73;99918.72;5090340;28;20190;-54
2022/01/29 02:41:51;;;;;;;4.77;4.07;;;;;;;3.68;66.09;99919.50;5090218;28;20202;-56
2022/01/29 02:44:21;;;;;;;4.17;3.77;;;;;;;3.74;66.03;99928.94;5090248;28;20226;-55
2022/01/29 02:46:51;;;;;;;5.90;3.93;;;;;;;3.75;65.64;99921.25;5090097;28;20663;-54
2022/01/29 02:49:22;;;;;;;4.43;4.03;;;;;;;3.71;65.70;99916.09;5090273;28;20207;-55
2022/01/29 02:51:50;;;;;;;4.90;4.10;;;;;;;3.79;66.18;99924.69;5090392;28;20202;-55
2022/01/29 02:54:18;;;;;;;4.37;3.97;;;;;;;3.73;65.48;99937.47;5090424;28;20337;-55
2022/01/29 02:56:46;;;;;;;4.50;3.90;;;;;;;3.80;64.91;99936.69;5091313;28;20236;-55
2022/01/29 02:59:13;;;;;;;4.23;3.87;;;;;;;3.86;64.93;99931.56;5094399;28;20199;-54
2022/01/29 03:01:43;;;;;;;4.87;4.03;;;;;;;3.93;64.02;99923.91;5094591;28;20202;-54
2022/01/29 03:04:10;;;;;;;4.77;4.30;;;;;;;3.82;65.02;99928.13;5094225;28;20218;-54
2022/01/29 03:06:37;;;;;;;4.30;3.33;;;;;;;3.88;64.67;99927.28;5094295;28;20754;-56
2022/01/29 03:09:05;;;;;;;4.40;3.80;;;;;;;3.84;64.66;99923.84;5094234;28;20291;-56
2022/01/29 03:11:32;;;;;;;4.57;4.17;;;;;;;3.83;64.24;99916.16;5094025;28;20602;-55
2022/01/29 03:14:01;;;;;;;5.97;3.33;;;;;;;3.64;64.58;99908.34;5094405;28;20676;-56
2022/01/29 03:16:28;;;;;;;4.10;3.40;;;;;;;3.48;64.85;99898.00;5094121;28;20198;-55
2022/01/29 03:18:55;;;;;;;3.40;3.00;;;;;;;3.71;64.19;99921.22;5094004;28;20194;-55
2022/01/29 03:21:22;;;;;;;4.30;3.90;;;;;;;3.65;63.95;99925.47;5093932;28;20206;-55
2022/01/29 03:23:49;;;;;;;4.10;3.53;;;;;;;3.61;64.72;99928.84;5093921;28;20228;-55
2022/01/29 03:26:16;;;;;;;4.93;3.67;;;;;;;3.56;64.10;99922.84;5093885;28;20558;-55
2022/01/29 03:28:43;;;;;;;7.10;3.90;;;;;;;3.44;64.44;99909.94;5094008;28;20659;-55
2022/01/29 03:31:11;;;;;;;4.93;3.70;;;;;;;3.26;65.02;99918.41;5093984;28;20223;-55
2022/01/29 03:33:38;;;;;;;4.87;3.83;;;;;;;3.28;64.70;99923.50;5093706;28;20206;-56
2022/01/29 03:36:06;;;;;;;3.53;3.23;;;;;;;3.35;65.32;99932.13;5093683;28;20671;-55
2022/01/29 03:38:33;;;;;;;5.27;3.40;;;;;;;3.42;64.89;99924.47;5093547;28;20223;-55
2022/01/29 03:41:00;;;;;;;5.67;3.37;;;;;;;3.54;64.31;99927.13;5093529;28;20194;-55
2022/01/29 03:43:31;;;;;;;5.03;3.50;;;;;;;3.45;64.09;99932.19;5093398;28;20250;-54
2022/01/29 03:45:58;;;;;;;4.43;3.43;;;;;;;3.46;64.84;99933.06;5093573;28;20196;-56
2022/01/29 03:48:26;;;;;;;4.17;3.40;;;;;;;3.50;64.53;99940.75;5093394;28;20209;-56
2022/01/29 03:50:53;;;;;;;5.10;3.70;;;;;;;3.51;65.23;99939.91;5093305;28;20195;-56
2022/01/29 03:53:20;;;;;;;4.53;3.77;;;;;;;3.55;65.75;99944.22;5093420;28;20550;-54
2022/01/29 03:55:47;;;;;;;5.17;3.57;;;;;;;3.54;66.32;99941.66;5093215;28;20225;-56
2022/01/29 03:58:14;;;;;;;3.83;3.53;;;;;;;3.62;65.95;99945.97;5093684;28;20220;-57
2022/01/29 04:00:41;;;;;;;4.07;3.70;;;;;;;3.48;66.73;99946.75;5093095;28;20201;-56
2022/01/29 04:03:08;;;;;;;8.03;4.40;;;;;;;3.37;67.77;99951.81;5093160;28;20237;-57
2022/01/29 04:05:37;;;;;;;4.83;4.13;;;;;;;3.54;67.71;99957.06;5093007;28;20226;-56
2022/01/29 04:08:12;;;;;;;5.03;4.50;;;;;;;3.60;67.86;99950.28;5092465;28;20293;-56
2022/01/29 04:10:39;;;;;;;5.60;4.53;;;;;;;3.56;68.24;99945.97;5093001;28;20219;-57
2022/01/29 04:13:09;;;;;;;5.00;4.10;;;;;;;3.54;68.61;99934.81;5092968;28;20201;-57
2022/01/29 04:15:36;;;;;;;5.07;4.50;;;;;;;3.59;69.07;99935.72;5092739;28;20286;-57
2022/01/29 04:18:03;;;;;;;5.00;4.47;;;;;;;3.50;69.15;99943.34;5092773;28;20207;-57
2022/01/29 04:20:31;;;;;;;8.13;4.90;;;;;;;3.55;69.08;99943.38;5092681;28;20581;-57
2022/01/29 04:22:59;;;;;;;6.53;4.60;;;;;;;3.59;68.30;99930.59;5092786;28;20193;-57
2022/01/29 04:25:26;;;;;;;6.80;4.97;;;;;;;3.70;67.51;99946.03;5092668;28;20313;-57
2022/01/29 04:27:53;;;;;;;4.53;4.07;;;;;;;3.58;67.86;99941.69;5092716;28;20206;-57
2022/01/29 04:30:28;;;;;;;9.37;4.53;;;;;;;3.54;68.43;99949.34;5092825;28;20223;-56
2022/01/29 04:33:01;;;;;;;5.40;4.27;;;;;;;3.47;68.60;99942.47;5092308;28;20501;-55
2022/01/29 04:35:29;;;;;;;7.57;4.50;;;;;;;3.43;68.78;99953.56;5092508;28;20203;-55
2022/01/29 04:37:56;;;;;;;6.70;4.83;;;;;;;3.42;69.26;99955.25;5092718;28;20580;-55
2022/01/29 04:40:24;;;;;;;5.97;4.30;;;;;;;3.52;69.18;99956.19;5092953;28;20206;-56
2022/01/29 04:42:51;;;;;;;7.33;5.20;;;;;;;3.59;69.30;99963.09;5092534;28;20571;-55
2022/01/29 04:45:18;;;;;;;4.50;4.10;;;;;;;3.52;69.33;99967.31;5092144;28;20227;-55
2022/01/29 04:47:45;;;;;;;5.00;4.50;;;;;;;3.36;69.87;99962.94;5092236;28;20237;-55
2022/01/29 04:50:12;;;;;;;4.87;4.47;;;;;;;3.41;69.87;99963.81;5092208;28;20193;-55
2022/01/29 04:52:39;;;;;;;4.17;3.83;;;;;;;3.45;69.57;99970.69;5092294;28;20199;-56
2022/01/29 04:55:07;;;;;;;7.13;4.60;;;;;;;3.54;69.56;99978.44;5092059;28;20784;-56
2022/01/29 04:57:37;;;;;;;5.37;3.90;;;;;;;3.42;69.74;99975.78;5092116;28;20676;-56
2022/01/29 05:00:07;;;;;;;7.10;4.73;;;;;;;3.54;68.94;99978.44;5091943;28;20284;-54
2022/01/29 05:02:35;;;;;;;4.63;4.23;;;;;;;3.51;69.01;99986.13;5091997;28;20205;-54
2022/01/29 05:05:02;;;;;;;5.13;4.37;;;;;;;3.50;69.36;99988.69;5092043;28;20222;-55
2022/01/29 05:07:29;;;;;;;4.70;4.30;;;;;;;3.50;69.27;99984.38;5091824;28;20286;-55
2022/01/29 05:09:56;;;;;;;5.13;4.40;;;;;;;3.47;69.69;99973.28;5091938;28;20196;-55
2022/01/29 05:12:28;;;;;;;6.03;4.37;;;;;;;3.43;70.16;99972.38;5091893;28;20593;-55
2022/01/29 05:15:09;;;;;;;4.73;4.23;;;;;;;3.47;69.91;99980.97;5092094;28;20633;-55
2022/01/29 05:28:34;;;;;;;5.57;4.90;;;;;;;3.47;69.78;99968.13;5071189;28;20760;-55
2022/01/29 05:31:02;;;;;;;5.47;4.97;;;;;;;3.53;69.90;99983.56;5071217;28;20201;-55
2022/01/29 05:33:29;;;;;;;8.10;4.70;;;;;;;3.46;69.87;99979.25;5073575;28;20289;-54
2022/01/29 05:35:56;;;;;;;6.47;5.37;;;;;;;3.49;70.05;99982.72;5071356;28;20691;-54
2022/01/29 05:38:23;;;;;;;5.87;5.00;;;;;;;3.45;70.23;99987.78;5086304;28;20194;-55
2022/01/29 05:40:50;;;;;;;5.40;4.70;;;;;;;3.49;70.33;99994.69;5085119;28;20289;-55
2022/01/29 05:43:17;;;;;;;5.73;5.00;;;;;;;3.50;70.25;100004.09;5081191;28;20198;-55
2022/01/29 05:45:43;;;;;;;6.57;5.03;;;;;;;3.53;70.18;99999.81;5089641;28;20222;-55
2022/01/29 05:48:12;;;;;;;6.10;5.13;;;;;;;3.60;69.72;100014.44;5090000;28;20226;-55
2022/01/29 05:50:39;;;;;;;9.23;5.00;;;;;;;3.58;70.11;100012.69;5091146;28;20200;-55
2022/01/29 05:53:06;;;;;;;7.43;5.23;;;;;;;3.69;69.34;100016.19;5090693;28;20191;-55
2022/01/29 05:55:33;;;;;;;7.53;6.73;;;;;;;3.75;69.71;100013.66;5090001;28;20611;-56
2022/01/29 05:58:00;;;;;;;10.53;6.03;;;;;;;3.81;69.43;100012.84;5080780;28;20232;-57
2022/01/29 06:00:26;;;;;;;23.33;14.57;;;;;;;3.91;69.19;100015.50;5089651;28;20240;-56
2022/01/29 06:03:04;;;;;;;30.53;18.77;;;;;;;4.01;68.43;100019.81;5090047;28;20223;-56
2022/01/29 06:05:32;;;;;;;19.80;13.77;;;;;;;3.93;67.97;99994.97;5089574;28;20234;-55
2022/01/29 06:07:59;;;;;;;27.67;17.60;;;;;;;4.22;67.45;100025.91;5090471;28;20703;-56
2022/01/29 06:10:27;;;;;;;11.27;8.23;;;;;;;4.33;66.03;100035.41;5090775;28;20668;-56
2022/01/29 06:13:01;;;;;;;11.37;8.10;;;;;;;4.40;65.38;100041.44;5090581;28;20679;-57
2022/01/29 06:15:29;;;;;;;6.70;6.10;;;;;;;4.47;65.15;100035.47;5075083;28;20223;-58
2022/01/29 06:17:56;;;;;;;6.63;5.83;;;;;;;4.62;65.04;100039.81;5068459;28;20249;-57
2022/01/29 06:20:23;;;;;;;6.23;5.40;;;;;;;4.81;63.80;100039.00;5070284;28;20222;-57
2022/01/29 06:22:52;;;;;;;6.70;5.90;;;;;;;4.94;63.31;100040.75;5075668;28;20226;-56
2022/01/29 06:25:19;;;;;;;11.77;6.70;;;;;;;4.87;63.35;100046.72;5090185;28;20764;-57
2022/01/29 06:27:46;;;;;;;6.17;5.57;;;;;;;4.99;62.86;100046.75;5086402;28;20202;-57
2022/01/29 06:30:14;;;;;;;6.07;5.47;;;;;;;4.91;63.06;100045.88;5089757;28;20191;-57
2022/01/29 06:32:42;;;;;;;9.53;5.03;;;;;;;4.91;63.20;100051.03;5080432;28;20191;-57
2022/01/29 06:35:10;;;;;;;5.17;4.77;;;;;;;4.90;62.58;100036.44;5080060;28;20188;-57
2022/01/29 06:37:37;;;;;;;6.80;4.93;;;;;;;5.04;62.86;100049.34;5081454;28;20213;-56
2022/01/29 06:40:06;;;;;;;5.17;4.67;;;;;;;5.26;62.34;100050.25;5090160;28;20232;-56
2022/01/29 06:42:33;;;;;;;5.70;4.40;;;;;;;5.31;62.06;100054.53;5086958;28;20206;-56
2022/01/29 06:45:00;;;;;;;9.03;5.00;;;;;;;5.45;61.57;100057.13;5087395;28;20583;-58
2022/01/29 06:47:27;;;;;;;5.40;4.43;;;;;;;5.50;61.54;100055.41;5087018;28;20195;-55
2022/01/29 06:49:54;;;;;;;7.07;4.50;;;;;;;5.64;61.22;100064.00;5092057;28;20195;-56
2022/01/29 06:52:21;;;;;;;5.67;5.10;;;;;;;5.69;61.59;100066.56;5086383;28;20642;-55
2022/01/29 06:54:48;;;;;;;6.57;5.47;;;;;;;5.81;60.87;100064.84;5081876;28;20219;-56
2022/01/29 06:57:17;;;;;;;6.20;5.60;;;;;;;5.94;60.58;100076.03;5084084;28;20205;-55
2022/01/29 06:59:43;;;;;;;8.10;5.10;;;;;;;5.95;60.00;100069.16;5093071;28;20568;-56
2022/01/29 07:02:10;;;;;;;7.00;5.67;;;;;;;6.01;60.54;100067.41;5090327;28;20197;-55
2022/01/29 07:04:37;;;;;;;5.53;5.03;;;;;;;6.01;60.05;100070.00;5086838;28;20695;-55
2022/01/29 07:07:05;;;;;;;5.63;4.97;;;;;;;6.13;60.39;100076.84;5083588;28;20192;-56
2022/01/29 07:09:31;;;;;;;6.17;5.57;;;;;;;6.06;61.00;100068.28;5078375;28;20195;-56
2022/01/29 07:12:07;;;;;;;9.67;5.30;;;;;;;6.16;60.32;100077.72;5081538;28;20243;-53
2022/01/29 07:14:39;;;;;;;11.33;6.03;;;;;;;6.31;59.75;100087.13;5084162;28;20191;-54
2022/01/29 07:17:09;;;;;;;10.43;6.03;;;;;;;6.46;59.50;100083.63;5088753;28;20260;-55
2022/01/29 07:19:36;;;;;;;9.03;5.37;;;;;;;6.50;59.26;100080.19;5092041;28;20208;-58
2022/01/29 07:22:04;;;;;;;9.67;5.93;;;;;;;6.61;58.71;100072.41;5076349;28;20578;-56
2022/01/29 07:24:31;;;;;;;8.03;6.07;;;;;;;6.56;58.83;100067.25;5069656;28;20279;-56
2022/01/29 07:26:58;;;;;;;10.43;6.13;;;;;;;6.74;58.58;100074.09;5089549;28;20219;-55
2022/01/29 07:29:25;;;;;;;7.83;5.57;;;;;;;6.73;59.21;100073.22;5077152;28;20245;-58
2022/01/29 07:31:53;;;;;;;6.03;5.30;;;;;;;6.87;60.99;100078.34;5085359;28;20227;-54
2022/01/29 07:34:20;;;;;;;6.47;5.07;;;;;;;6.81;59.50;100086.94;5089190;28;20225;-57
2022/01/29 07:36:47;;;;;;;9.03;5.83;;;;;;;6.77;59.04;100086.97;5089076;28;20219;-54
2022/01/29 07:39:14;;;;;;;5.73;5.23;;;;;;;6.76;59.14;100086.13;5088353;28;20215;-55
2022/01/29 07:41:41;;;;;;;7.67;5.73;;;;;;;6.91;58.83;100090.34;5084882;28;20705;-58
2022/01/29 07:44:08;;;;;;;9.17;6.23;;;;;;;6.78;58.22;100091.25;5077271;28;20230;-57
2022/01/29 07:46:35;;;;;;;7.20;5.90;;;;;;;6.69;58.75;100075.81;5085818;28;20231;-58
2022/01/29 07:49:03;;;;;;;6.47;5.80;;;;;;;6.85;59.04;100100.69;5079827;28;20211;-59
2022/01/29 07:51:30;;;;;;;6.37;5.77;;;;;;;6.67;59.46;100103.34;5086032;28;20219;-56
2022/01/29 07:53:57;;;;;;;8.33;6.50;;;;;;;6.74;59.33;100105.06;5083663;28;20199;-57
2022/01/29 07:56:24;;;;;;;7.80;6.60;;;;;;;6.64;59.79;100093.91;5091398;28;20217;-57
2022/01/29 07:58:52;;;;;;;7.10;5.90;;;;;;;6.54;60.00;100105.97;5091804;28;20254;-56
2022/01/29 08:01:19;;;;;;;8.27;7.00;;;;;;;6.52;60.29;100110.28;5091425;28;20683;-57
2022/01/29 08:03:48;;;;;;;9.27;6.83;;;;;;;6.68;60.36;100112.78;5090255;28;20200;-57
2022/01/29 08:06:17;;;;;;;8.47;7.47;;;;;;;6.86;59.73;100108.44;5090594;28;20211;-57
2022/01/29 08:08:44;;;;;;;7.70;6.77;;;;;;;6.76;60.15;100100.75;5092010;28;20200;-57
2022/01/29 08:11:12;;;;;;;6.60;6.00;;;;;;;6.68;59.90;100105.06;5090185;28;20687;-57
2022/01/29 08:13:40;;;;;;;9.37;6.53;;;;;;;6.68;59.24;100077.53;5085945;28;20235;-58
2022/01/29 08:16:07;;;;;;;7.37;6.20;;;;;;;6.90;59.15;100104.09;5074663;28;20585;-56
2022/01/29 08:18:34;;;;;;;11.70;6.60;;;;;;;7.00;58.78;100105.78;5091177;28;20201;-58
2022/01/29 08:21:01;;;;;;;10.47;6.80;;;;;;;7.03;58.60;100110.91;5091336;28;20686;-54
2022/01/29 08:23:30;;;;;;;6.90;6.30;;;;;;;6.99;58.71;100116.13;5091195;28;20239;-55
2022/01/29 08:25:57;;;;;;;8.27;7.43;;;;;;;7.04;59.03;100111.78;5091999;28;20629;-54
2022/01/29 08:28:24;;;;;;;9.47;7.07;;;;;;;7.12;59.21;100118.63;5091283;28;20199;-56
2022/01/29 08:30:51;;;;;;;10.53;7.13;;;;;;;7.11;59.37;100108.31;5088094;28;20192;-55
2022/01/29 08:33:18;;;;;;;6.77;6.17;;;;;;;7.11;59.88;100111.72;5090235;28;20198;-55
2022/01/29 08:35:46;;;;;;;7.23;6.53;;;;;;;7.11;58.77;100121.22;5092270;28;20282;-55
2022/01/29 08:38:13;;;;;;;12.93;7.30;;;;;;;7.33;59.50;100130.56;5092379;28;20191;-55
2022/01/29 08:40:41;;;;;;;8.87;6.80;;;;;;;6.97;59.61;100123.88;5079923;28;20200;-55
2022/01/29 08:43:09;;;;;;;7.43;6.63;;;;;;;7.04;60.31;100130.72;5071909;28;20203;-55
2022/01/29 08:45:36;;;;;;;9.37;6.93;;;;;;;7.20;59.56;100131.50;5071786;28;20310;-55
2022/01/29 08:48:04;;;;;;;11.63;7.73;;;;;;;7.09;60.19;100126.41;5072280;28;20196;-58
2022/01/29 08:50:31;;;;;;;8.50;7.20;;;;;;;6.97;60.12;100113.56;5084314;28;20228;-56
2022/01/29 08:52:58;;;;;;;9.97;8.47;;;;;;;7.11;61.21;100136.72;5092159;28;20221;-57
2022/01/29 08:55:25;;;;;;;9.23;7.80;;;;;;;7.17;62.68;100140.13;5091763;28;20253;-56
2022/01/29 08:57:53;;;;;;;12.30;8.43;;;;;;;7.02;62.52;100127.28;5077084;28;20625;-57
2022/01/29 09:00:20;;;;;;;8.50;7.60;;;;;;;7.12;62.12;100149.59;5072091;28;20582;-56
2022/01/29 09:02:47;;;;;;;13.87;7.93;;;;;;;7.17;61.20;100140.13;5071366;28;20279;-57
2022/01/29 09:05:14;;;;;;;13.30;7.57;;;;;;;7.10;63.31;100138.44;5080285;28;20563;-57
2022/01/29 09:07:41;;;;;;;9.50;8.10;;;;;;;7.02;62.23;100132.44;5083038;28;20561;-57
2022/01/29 09:10:09;;;;;;;12.07;9.47;;;;;;;7.01;62.22;100130.72;5071264;28;20200;-57
2022/01/29 09:12:36;;;;;;;13.43;9.20;;;;;;;7.21;61.64;100133.22;5090543;28;20282;-57
2022/01/29 09:15:05;;;;;;;9.30;8.33;;;;;;;7.42;61.05;100132.25;5080965;28;20771;-57
2022/01/29 09:17:32;;;;;;;9.90;8.17;;;;;;;7.34;60.56;100126.25;5088358;28;20223;-56
2022/01/29 09:19:59;;;;;;;11.40;8.10;;;;;;;7.52;59.80;100128.72;5089792;28;20284;-55
2022/01/29 09:22:26;;;;;;;13.50;8.07;;;;;;;7.60;60.06;100127.78;5079439;28;20219;-57
2022/01/29 09:24:53;;;;;;;9.30;8.20;;;;;;;7.60;59.17;100126.94;5078052;28;20224;-57
2022/01/29 09:27:20;;;;;;;9.93;7.63;;;;;;;7.69;57.75;100129.44;5076224;28;20592;-57
2022/01/29 09:29:46;;;;;;;10.80;7.50;;;;;;;7.76;56.92;100122.53;5085916;28;20200;-57
2022/01/29 09:32:15;;;;;;;13.70;8.87;;;;;;;7.87;57.23;100115.53;5089064;28;20197;-58
2022/01/29 09:34:42;;;;;;;8.43;7.37;;;;;;;7.89;57.37;100114.66;5081016;28;20238;-57
2022/01/29 09:37:09;;;;;;;9.27;7.87;;;;;;;7.82;56.82;100115.56;5071662;28;20203;-57
2022/01/29 09:39:36;;;;;;;7.87;6.60;;;;;;;7.84;57.58;100119.00;5087438;28;20282;-57
2022/01/29 09:42:03;;;;;;;8.73;6.77;;;;;;;7.93;57.28;100120.66;5091546;28;20583;-58
2022/01/29 09:44:31;;;;;;;7.50;6.53;;;;;;;7.87;57.89;100124.16;5075586;28;20203;-58
2022/01/29 09:46:58;;;;;;;9.00;6.53;;;;;;;7.90;57.52;100116.34;5088697;28;20222;-58
2022/01/29 09:49:30;;;;;;;7.27;6.60;;;;;;;7.89;57.90;100117.25;5072909;28;20696;-58
2022/01/29 09:51:57;;;;;;;7.27;6.57;;;;;;;7.90;57.25;100111.19;5070405;28;20192;-58
2022/01/29 09:54:24;;;;;;;7.53;6.90;;;;;;;8.05;56.81;100106.75;5070797;28;20755;-58
2022/01/29 09:56:51;;;;;;;7.53;6.83;;;;;;;8.16;56.19;100110.09;5083242;28;20191;-58
2022/01/29 09:59:18;;;;;;;7.73;7.03;;;;;;;8.30;56.67;100105.66;5090850;28;20588;-58
2022/01/29 10:01:45;;;;;;;7.17;6.53;;;;;;;8.42;55.95;100115.06;5090764;28;20205;-59
2022/01/29 10:04:13;;;;;;;9.30;7.00;;;;;;;8.42;55.92;100109.88;5090860;28;20671;-56
2022/01/29 10:06:43;;;;;;;7.63;6.93;;;;;;;8.32;55.92;100112.56;5085520;28;20223;-56
2022/01/29 10:09:12;;;;;;;7.73;6.57;;;;;;;8.30;55.67;100108.25;5086968;28;20245;-55
2022/01/29 10:11:40;;;;;;;7.93;7.20;;;;;;;8.40;56.13;100102.13;5079126;28;20195;-56
2022/01/29 10:14:07;;;;;;;9.47;7.87;;;;;;;8.33;55.67;100096.19;5071634;28;20200;-55
2022/01/29 10:16:41;;;;;;;8.83;7.60;;;;;;;8.45;56.12;100102.97;5110879;28;20190;-55
2022/01/29 10:19:09;;;;;;;9.83;7.70;;;;;;;8.54;55.04;100105.44;5111118;28;20584;-55
2022/01/29 10:21:38;;;;;;;10.50;8.13;;;;;;;8.51;55.37;100100.28;5110905;28;20232;-55
2022/01/29 10:24:09;;;;;;;8.13;6.63;;;;;;;8.75;54.19;100096.56;5109024;28;20202;-55
2022/01/29 10:26:38;;;;;;;8.50;7.53;;;;;;;8.95;53.92;100092.00;5090041;28;20225;-55
2022/01/29 10:29:07;;;;;;;8.50;7.20;;;;;;;9.22;53.92;100100.28;5081436;28;20207;-55
2022/01/29 10:31:43;;;;;;;6.97;6.37;;;;;;;9.27;52.89;100095.88;5075539;28;20677;-55
2022/01/29 10:34:17;;;;;;;6.87;5.60;;;;;;;9.02;52.50;100098.81;5069715;28;20660;-55
2022/01/29 10:36:44;;;;;;;7.03;5.27;;;;;;;8.98;52.06;100098.88;5087512;28;20253;-56
2022/01/29 10:39:13;;;;;;;5.50;5.10;;;;;;;8.90;52.51;100093.78;5089794;28;20219;-59
2022/01/29 10:41:40;;;;;;;5.73;5.33;;;;;;;8.94;52.61;100094.59;5088886;28;20223;-57
2022/01/29 10:44:14;;;;;;;6.17;5.30;;;;;;;8.73;53.38;100094.00;5089820;28;20294;-58
2022/01/29 10:46:46;;;;;;;6.97;4.90;;;;;;;8.78;53.26;100098.25;5110246;28;20221;-58
2022/01/29 10:49:22;;;;;;;6.13;5.30;;;;;;;8.65;53.10;100101.00;5106046;28;20194;-58
2022/01/29 10:52:02;;;;;;;6.40;5.80;;;;;;;8.61;54.25;100091.53;5069548;28;20195;-58
2022/01/29 10:54:31;;;;;;;8.20;5.80;;;;;;;8.59;54.63;100098.47;5090371;28;20321;-57
2022/01/29 10:57:00;;;;;;;8.90;6.90;;;;;;;8.74;53.63;100092.25;5087700;28;20205;-58
2022/01/29 10:59:29;;;;;;;6.70;5.67;;;;;;;8.56;53.50;100072.66;5086430;28;20209;-58
2022/01/29 11:01:58;;;;;;;5.40;4.90;;;;;;;8.85;51.54;100090.41;5088610;28;20201;-54
2022/01/29 11:04:28;;;;;;;4.67;4.37;;;;;;;8.85;51.67;100087.81;5089139;28;20290;-58
2022/01/29 11:06:57;;;;;;;6.33;5.73;;;;;;;8.78;52.68;100091.34;5088698;28;20211;-58
2022/01/29 11:09:25;;;;;;;6.40;5.43;;;;;;;8.68;53.99;100093.19;5085859;28;20187;-57
2022/01/29 11:11:55;;;;;;;5.83;5.23;;;;;;;8.73;53.03;100085.38;5088358;28;20202;-57
2022/01/29 11:14:24;;;;;;;8.87;5.33;;;;;;;8.77;52.47;100086.19;5088475;28;20191;-58
2022/01/29 11:16:53;;;;;;;5.70;5.23;;;;;;;8.86;52.51;100084.34;5088416;28;20249;-58
2022/01/29 11:19:20;;;;;;;5.93;4.97;;;;;;;8.84;52.43;100077.47;5092343;28;20585;-58
2022/01/29 11:21:49;;;;;;;5.13;4.73;;;;;;;8.94;52.05;100079.91;5092520;28;20199;-58
2022/01/29 11:24:19;;;;;;;8.03;5.80;;;;;;;9.10;51.63;100073.66;5090526;28;20195;-58
2022/01/29 11:26:46;;;;;;;5.40;4.90;;;;;;;9.16;51.45;100074.44;5082875;28;20222;-58
2022/01/29 11:29:25;;;;;;;8.20;5.23;;;;;;;9.27;51.56;100069.97;5078537;28;20187;-59
2022/01/29 11:32:32;;;;;;;9.50;5.50;;;;;;;9.46;51.15;100077.47;5078231;28;20196;-58
2022/01/29 11:35:13;;;;;;;5.63;5.13;;;;;;;9.63;50.59;100072.00;5019461;28;20225;-57
2022/01/29 11:37:53;;;;;;;5.37;4.87;;;;;;;9.59;49.59;100070.34;5020043;28;20197;-57
2022/01/29 11:40:29;;;;;;;6.00;5.50;;;;;;;9.73;49.40;100073.56;5062947;28;20622;-57
2022/01/29 11:42:59;;;;;;;5.33;4.53;;;;;;;9.73;49.11;100068.38;5077819;28;20200;-58
2022/01/29 11:45:41;;;;;;;4.50;4.20;;;;;;;9.71;48.32;100064.09;5073478;28;20661;-58
2022/01/29 11:48:31;;;;;;;5.53;5.03;;;;;;;9.77;49.24;100071.78;5089477;28;20307;-58
2022/01/29 11:50:59;;;;;;;5.20;4.80;;;;;;;9.78;48.12;100065.72;5087805;28;20203;-55
2022/01/29 11:53:48;;;;;;;4.87;4.57;;;;;;;10.03;47.55;100058.38;5085335;28;20188;-55